SAS930 ESGG-ESSA
Flight info
| Callsign | SAS930 |
|---|---|
| Flight time | 0h 44m |
| Altitude | 29000 |
| Route | LABAN N873 ARS T317 ELTOK |
| Aircraft | B738/M-SDE2E3FGHIRWXY/LB1 |
Departure
| Time | 2026-05-04 05:56 |
|---|---|
| Airport | Göteborg Landvetter Airport (ESGG) |
Arrival
| Time | 2026-05-04 06:40 |
|---|---|
| Airport | Stockholm-Arlanda Airport (ESSA) |
| Time | Latitude | Longitude | Altitude | Speed | Heading |
|---|---|---|---|---|---|
| 2026-05-04 05:34 | 57.66936 | 12.29459 | 526 ft | 0 kts | 116° |
| 2026-05-04 05:51 | 57.67001 | 12.29374 | 523 ft | 0 kts | 206° |
| 2026-05-04 05:54 | 57.67452 | 12.29271 | 519 ft | 21 kts | 278° |
| 2026-05-04 05:55 | 57.67419 | 12.29010 | 519 ft | 21 kts | 214° |
| 2026-05-04 05:55 | 57.67133 | 12.28763 | 525 ft | 80 kts | 206° |
| 2026-05-04 05:55 | 57.66435 | 12.28112 | 523 ft | 142 kts | 207° |
| 2026-05-04 05:55 | 57.65407 | 12.27141 | 722 ft | 181 kts | 206° |
| 2026-05-04 05:56 | 57.64238 | 12.26151 | 1629 ft | 181 kts | 208° |
| 2026-05-04 05:56 | 57.63141 | 12.25244 | 2858 ft | 166 kts | 199° |
| 2026-05-04 05:56 | 57.61984 | 12.24995 | 3716 ft | 176 kts | 185° |
| 2026-05-04 05:56 | 57.60680 | 12.25306 | 4177 ft | 207 kts | 166° |
| 2026-05-04 05:57 | 57.59315 | 12.26586 | 4491 ft | 228 kts | 158° |
| 2026-05-04 05:57 | 57.57862 | 12.27850 | 5066 ft | 236 kts | 153° |
| 2026-05-04 05:57 | 57.56782 | 12.30184 | 5685 ft | 247 kts | 110° |
| 2026-05-04 05:57 | 57.56688 | 12.33405 | 6154 ft | 263 kts | 73° |
| 2026-05-04 05:58 | 57.57402 | 12.36645 | 6477 ft | 284 kts | 63° |
| 2026-05-04 05:58 | 57.58208 | 12.40134 | 7216 ft | 292 kts | 65° |
| 2026-05-04 05:58 | 57.58993 | 12.43653 | 8076 ft | 297 kts | 65° |
| 2026-05-04 05:58 | 57.59779 | 12.47268 | 8904 ft | 304 kts | 66° |
| 2026-05-04 05:59 | 57.60561 | 12.50942 | 9806 ft | 307 kts | 66° |
| 2026-05-04 05:59 | 57.61359 | 12.54712 | 10369 ft | 322 kts | 66° |
| 2026-05-04 05:59 | 57.62399 | 12.58515 | 10544 ft | 346 kts | 49° |
| 2026-05-04 05:59 | 57.64067 | 12.61877 | 10966 ft | 359 kts | 42° |
| 2026-05-04 06:00 | 57.65862 | 12.65161 | 11631 ft | 366 kts | 41° |
| 2026-05-04 06:00 | 57.67703 | 12.68496 | 12394 ft | 372 kts | 41° |
| 2026-05-04 06:00 | 57.69571 | 12.71905 | 13172 ft | 377 kts | 41° |
| 2026-05-04 06:00 | 57.71449 | 12.75367 | 13860 ft | 383 kts | 42° |
| 2026-05-04 06:01 | 57.73350 | 12.78908 | 14534 ft | 388 kts | 43° |
| 2026-05-04 06:01 | 57.75262 | 12.82498 | 15236 ft | 392 kts | 43° |
| 2026-05-04 06:03 | 57.89321 | 13.09275 | 19562 ft | 428 kts | 43° |
| 2026-05-04 06:03 | 57.91405 | 13.13277 | 20097 ft | 432 kts | 43° |
| 2026-05-04 06:05 | 58.06578 | 13.42629 | 23659 ft | 462 kts | 44° |
| 2026-05-04 06:05 | 58.11071 | 13.51395 | 24588 ft | 466 kts | 44° |
| 2026-05-04 06:05 | 58.13329 | 13.55814 | 25025 ft | 469 kts | 44° |
| 2026-05-04 06:06 | 58.15606 | 13.60277 | 25454 ft | 472 kts | 45° |
| 2026-05-04 06:06 | 58.17894 | 13.64771 | 25872 ft | 474 kts | 45° |
| 2026-05-04 06:06 | 58.19435 | 13.67803 | 26142 ft | 476 kts | 45° |
| 2026-05-04 06:06 | 58.21739 | 13.72344 | 26478 ft | 480 kts | 45° |
| 2026-05-04 06:07 | 58.24822 | 13.78434 | 26974 ft | 485 kts | 45° |
| 2026-05-04 06:07 | 58.26406 | 13.81568 | 27248 ft | 486 kts | 45° |
| 2026-05-04 06:07 | 58.28745 | 13.86206 | 27672 ft | 488 kts | 45° |
| 2026-05-04 06:07 | 58.31079 | 13.90842 | 28045 ft | 490 kts | 45° |
| 2026-05-04 06:08 | 58.33429 | 13.95522 | 28531 ft | 490 kts | 46° |
| 2026-05-04 06:08 | 58.35773 | 14.00198 | 28774 ft | 493 kts | 46° |
| 2026-05-04 06:08 | 58.38145 | 14.04940 | 28749 ft | 493 kts | 46° |
| 2026-05-04 06:09 | 58.42812 | 14.14301 | 28738 ft | 486 kts | 46° |
| 2026-05-04 06:11 | 58.61530 | 14.52219 | 28754 ft | 493 kts | 46° |
| 2026-05-04 06:13 | 58.80146 | 14.90574 | 28747 ft | 490 kts | 47° |
| 2026-05-04 06:14 | 58.94044 | 15.19634 | 28304 ft | 485 kts | 47° |
| 2026-05-04 06:14 | 58.96307 | 15.24400 | 27869 ft | 478 kts | 47° |
| 2026-05-04 06:15 | 58.98538 | 15.29111 | 27435 ft | 472 kts | 47° |
| 2026-05-04 06:15 | 59.00748 | 15.33784 | 26919 ft | 468 kts | 47° |
| 2026-05-04 06:15 | 59.02941 | 15.38432 | 26435 ft | 464 kts | 47° |
| 2026-05-04 06:15 | 59.05115 | 15.43049 | 25957 ft | 460 kts | 47° |
| 2026-05-04 06:16 | 59.07221 | 15.47532 | 25492 ft | 457 kts | 47° |
| 2026-05-04 06:16 | 59.09386 | 15.52149 | 24988 ft | 454 kts | 47° |
| 2026-05-04 06:16 | 59.11457 | 15.56575 | 24545 ft | 451 kts | 47° |
| 2026-05-04 06:16 | 59.13588 | 15.61135 | 24089 ft | 448 kts | 47° |
| 2026-05-04 06:17 | 59.15655 | 15.65568 | 23644 ft | 445 kts | 47° |
| 2026-05-04 06:17 | 59.17723 | 15.70013 | 23139 ft | 444 kts | 47° |
| 2026-05-04 06:17 | 59.19797 | 15.74471 | 22618 ft | 441 kts | 46° |
| 2026-05-04 06:17 | 59.21852 | 15.78883 | 22165 ft | 437 kts | 46° |
| 2026-05-04 06:18 | 59.23885 | 15.83263 | 21701 ft | 433 kts | 46° |
| 2026-05-04 06:18 | 59.25894 | 15.87613 | 21234 ft | 429 kts | 46° |
| 2026-05-04 06:18 | 59.27867 | 15.91902 | 20776 ft | 425 kts | 46° |
| 2026-05-04 06:20 | 59.41307 | 16.21325 | 17666 ft | 405 kts | 47° |
| 2026-05-04 06:20 | 59.43098 | 16.25581 | 17220 ft | 403 kts | 50° |
| 2026-05-04 06:21 | 59.49845 | 16.42763 | 15499 ft | 391 kts | 50° |
| 2026-05-04 06:21 | 59.51507 | 16.46978 | 15063 ft | 388 kts | 50° |
| 2026-05-04 06:22 | 59.53155 | 16.51150 | 14658 ft | 384 kts | 50° |
| 2026-05-04 06:22 | 59.54781 | 16.55266 | 14249 ft | 381 kts | 50° |
| 2026-05-04 06:25 | 59.79219 | 16.94352 | 9945 ft | 310 kts | 32° |
| 2026-05-04 06:25 | 59.80938 | 16.96841 | 9818 ft | 302 kts | 36° |
| 2026-05-04 06:26 | 59.82241 | 17.00049 | 9725 ft | 298 kts | 63° |
| 2026-05-04 06:26 | 59.82819 | 17.04017 | 9245 ft | 304 kts | 82° |
| 2026-05-04 06:26 | 59.83024 | 17.08165 | 8966 ft | 301 kts | 83° |
| 2026-05-04 06:26 | 59.83241 | 17.12302 | 8638 ft | 300 kts | 81° |
| 2026-05-04 06:27 | 59.84880 | 17.28391 | 7396 ft | 276 kts | 77° |
| 2026-05-04 06:28 | 59.85282 | 17.32042 | 7197 ft | 265 kts | 77° |
| 2026-05-04 06:28 | 59.85679 | 17.35619 | 6813 ft | 268 kts | 77° |
| 2026-05-04 06:28 | 59.86078 | 17.39194 | 6649 ft | 255 kts | 77° |
| 2026-05-04 06:28 | 59.86452 | 17.42579 | 6491 ft | 245 kts | 77° |
| 2026-05-04 06:29 | 59.86806 | 17.45802 | 6296 ft | 233 kts | 77° |
| 2026-05-04 06:29 | 59.87144 | 17.48890 | 6059 ft | 225 kts | 77° |
| 2026-05-04 06:29 | 59.87471 | 17.51866 | 5866 ft | 220 kts | 77° |
| 2026-05-04 06:29 | 59.87802 | 17.54840 | 5664 ft | 221 kts | 77° |
| 2026-05-04 06:30 | 59.88141 | 17.57831 | 5489 ft | 224 kts | 77° |
| 2026-05-04 06:30 | 59.88495 | 17.60919 | 5313 ft | 233 kts | 77° |
| 2026-05-04 06:30 | 59.88862 | 17.64078 | 5081 ft | 236 kts | 77° |
| 2026-05-04 06:30 | 59.89191 | 17.67279 | 4889 ft | 235 kts | 85° |
| 2026-05-04 06:31 | 59.89299 | 17.70468 | 4842 ft | 227 kts | 87° |
| 2026-05-04 06:31 | 59.89403 | 17.73598 | 4745 ft | 228 kts | 88° |
| 2026-05-04 06:31 | 59.89512 | 17.76765 | 4654 ft | 229 kts | 87° |
| 2026-05-04 06:31 | 59.89619 | 17.79823 | 4542 ft | 218 kts | 87° |
| 2026-05-04 06:32 | 59.89722 | 17.82731 | 4517 ft | 203 kts | 87° |
| 2026-05-04 06:33 | 59.89030 | 18.00157 | 3388 ft | 178 kts | 154° |
| 2026-05-04 06:34 | 59.87965 | 18.00994 | 3169 ft | 173 kts | 167° |
| 2026-05-04 06:34 | 59.86809 | 18.01720 | 2916 ft | 175 kts | 167° |
| 2026-05-04 06:34 | 59.85646 | 18.02433 | 2649 ft | 175 kts | 167° |
| 2026-05-04 06:34 | 59.84483 | 18.02965 | 2526 ft | 169 kts | 185° |
| 2026-05-04 06:35 | 59.83371 | 18.02548 | 2535 ft | 165 kts | 195° |
| 2026-05-04 06:36 | 59.75587 | 17.99763 | 2367 ft | 163 kts | 194° |
| 2026-05-04 06:37 | 59.74478 | 17.99361 | 2138 ft | 161 kts | 193° |
| 2026-05-04 06:37 | 59.73400 | 17.98973 | 1918 ft | 153 kts | 193° |
| 2026-05-04 06:37 | 59.72356 | 17.98593 | 1736 ft | 154 kts | 192° |
| 2026-05-04 06:37 | 59.71290 | 17.98206 | 1514 ft | 156 kts | 192° |
| 2026-05-04 06:38 | 59.70233 | 17.97824 | 1288 ft | 153 kts | 191° |
| 2026-05-04 06:38 | 59.69179 | 17.97442 | 1074 ft | 155 kts | 192° |
| 2026-05-04 06:40 | 59.62912 | 17.94995 | 135 ft | 34 kts | 216° |
| 2026-05-04 06:40 | 59.62858 | 17.94800 | 136 ft | 21 kts | 290° |
| 2026-05-04 06:40 | 59.62998 | 17.94766 | 133 ft | 23 kts | 16° |
| 2026-05-04 06:40 | 59.63201 | 17.94856 | 125 ft | 37 kts | 8° |
| 2026-05-04 06:41 | 59.63464 | 17.94960 | 118 ft | 39 kts | 13° |
| 2026-05-04 06:41 | 59.63730 | 17.95062 | 110 ft | 39 kts | 9° |
| 2026-05-04 06:41 | 59.63967 | 17.95148 | 108 ft | 32 kts | 13° |
| 2026-05-04 06:41 | 59.64172 | 17.95222 | 106 ft | 29 kts | 9° |
| 2026-05-04 06:42 | 59.64352 | 17.95125 | 103 ft | 26 kts | 314° |
| 2026-05-04 06:42 | 59.64394 | 17.94805 | 100 ft | 24 kts | 256° |
| 2026-05-04 06:42 | 59.64326 | 17.94521 | 102 ft | 23 kts | 236° |
| 2026-05-04 06:44 | 59.64159 | 17.92928 | 111 ft | 0 kts | 31° |
| 2026-05-04 06:44 | 59.64189 | 17.92925 | 111 ft | 7 kts | 0° |
| 2026-05-04 06:45 | 59.64238 | 17.92954 | 111 ft | 7 kts | 26° |
| 2026-05-04 06:45 | 59.64281 | 17.93000 | 110 ft | 7 kts | 26° |
| 2026-05-04 06:45 | 59.64300 | 17.93018 | 111 ft | 0 kts | 25° |